sensor_id;sensor_type;location;lat;lon;timestamp;pressure;altitude;pressure_sealevel;temperature;humidity
41703;BME280;861;48.808;9.006;2022-09-01T00:00:12;97319.53;;;17.53;83.23
41703;BME280;861;48.808;9.006;2022-09-01T00:02:39;97324.41;;;17.65;82.66
41703;BME280;861;48.808;9.006;2022-09-01T00:05:08;97319.16;;;17.70;81.87
41703;BME280;861;48.808;9.006;2022-09-01T00:07:35;97325.97;;;17.66;82.23
41703;BME280;861;48.808;9.006;2022-09-01T00:10:06;97324.75;;;17.67;82.18
41703;BME280;861;48.808;9.006;2022-09-01T00:12:35;97319.25;;;17.67;82.21
41703;BME280;861;48.808;9.006;2022-09-01T00:15:07;97330.41;;;17.60;81.89
41703;BME280;861;48.808;9.006;2022-09-01T00:17:34;97328.00;;;17.62;82.26
41703;BME280;861;48.808;9.006;2022-09-01T00:20:03;97331.25;;;17.57;82.06
41703;BME280;861;48.808;9.006;2022-09-01T00:22:29;97324.66;;;17.51;81.59
41703;BME280;861;48.808;9.006;2022-09-01T00:24:56;97328.09;;;17.35;82.84
41703;BME280;861;48.808;9.006;2022-09-01T00:27:22;97327.19;;;17.22;84.20
41703;BME280;861;48.808;9.006;2022-09-01T00:29:48;97328.56;;;17.30;83.92
41703;BME280;861;48.808;9.006;2022-09-01T00:32:14;97326.25;;;17.29;84.14
41703;BME280;861;48.808;9.006;2022-09-01T00:34:40;97318.09;;;17.25;84.00
41703;BME280;861;48.808;9.006;2022-09-01T00:37:07;97325.91;;;17.27;83.87
41703;BME280;861;48.808;9.006;2022-09-01T00:39:34;97319.84;;;17.35;83.02
41703;BME280;861;48.808;9.006;2022-09-01T00:42:01;97315.34;;;17.25;83.69
41703;BME280;861;48.808;9.006;2022-09-01T00:44:28;97327.19;;;17.22;83.38
41703;BME280;861;48.808;9.006;2022-09-01T00:46:55;97323.81;;;17.34;83.07
41703;BME280;861;48.808;9.006;2022-09-01T00:49:40;97314.28;;;17.39;82.73
41703;BME280;861;48.808;9.006;2022-09-01T00:52:35;97316.59;;;17.21;83.39
41703;BME280;861;48.808;9.006;2022-09-01T00:55:29;97322.00;;;17.24;82.67
41703;BME280;861;48.808;9.006;2022-09-01T00:58:02;97316.94;;;17.23;82.86
41703;BME280;861;48.808;9.006;2022-09-01T01:00:37;97327.94;;;17.03;83.53
41703;BME280;861;48.808;9.006;2022-09-01T01:03:12;97317.81;;;16.97;84.31
41703;BME280;861;48.808;9.006;2022-09-01T01:05:51;97310.28;;;17.01;84.88
41703;BME280;861;48.808;9.006;2022-09-01T01:08:30;97314.38;;;17.12;83.68
41703;BME280;861;48.808;9.006;2022-09-01T01:11:12;97320.97;;;17.18;82.79
41703;BME280;861;48.808;9.006;2022-09-01T01:14:02;97323.72;;;17.18;83.29
41703;BME280;861;48.808;9.006;2022-09-01T01:16:49;97314.53;;;17.25;83.02
41703;BME280;861;48.808;9.006;2022-09-01T01:23:44;97312.69;;;17.18;84.06
41703;BME280;861;48.808;9.006;2022-09-01T01:26:19;97311.00;;;17.24;83.78
41703;BME280;861;48.808;9.006;2022-09-01T01:28:45;97307.50;;;17.24;83.84
41703;BME280;861;48.808;9.006;2022-09-01T01:31:17;97308.34;;;17.21;84.24
41703;BME280;861;48.808;9.006;2022-09-01T01:33:55;97310.84;;;17.12;84.58
41703;BME280;861;48.808;9.006;2022-09-01T01:36:31;97308.66;;;17.03;84.60
41703;BME280;861;48.808;9.006;2022-09-01T01:39:20;97313.53;;;17.15;85.19
41703;BME280;861;48.808;9.006;2022-09-01T01:41:53;97302.31;;;17.26;83.75
41703;BME280;861;48.808;9.006;2022-09-01T01:44:26;97303.31;;;17.16;83.93
41703;BME280;861;48.808;9.006;2022-09-01T01:46:56;97304.59;;;17.11;83.73
41703;BME280;861;48.808;9.006;2022-09-01T01:49:26;97307.69;;;17.13;84.12
41703;BME280;861;48.808;9.006;2022-09-01T01:51:56;97308.41;;;17.17;84.37
41703;BME280;861;48.808;9.006;2022-09-01T01:54:26;97306.75;;;17.00;84.65
41703;BME280;861;48.808;9.006;2022-09-01T01:56:59;97308.16;;;17.08;85.19
41703;BME280;861;48.808;9.006;2022-09-01T01:59:26;97307.63;;;17.17;83.79
41703;BME280;861;48.808;9.006;2022-09-01T02:01:55;97314.09;;;17.07;83.97
41703;BME280;861;48.808;9.006;2022-09-01T02:04:23;97313.31;;;17.06;83.18
41703;BME280;861;48.808;9.006;2022-09-01T02:06:49;97311.84;;;17.02;83.68
41703;BME280;861;48.808;9.006;2022-09-01T02:09:20;97312.53;;;17.06;83.66
41703;BME280;861;48.808;9.006;2022-09-01T02:11:48;97303.16;;;17.03;83.66
41703;BME280;861;48.808;9.006;2022-09-01T02:14:19;97311.91;;;16.98;84.20
41703;BME280;861;48.808;9.006;2022-09-01T02:16:47;97311.91;;;16.98;83.34
41703;BME280;861;48.808;9.006;2022-09-01T02:19:15;97315.44;;;16.99;83.83
41703;BME280;861;48.808;9.006;2022-09-01T02:21:45;97318.94;;;16.99;84.61
41703;BME280;861;48.808;9.006;2022-09-01T02:24:21;97309.34;;;16.88;85.46
41703;BME280;861;48.808;9.006;2022-09-01T02:26:49;97317.94;;;16.90;85.64
41703;BME280;861;48.808;9.006;2022-09-01T02:29:21;97315.13;;;16.93;84.74
41703;BME280;861;48.808;9.006;2022-09-01T02:31:55;97310.56;;;16.83;84.74
41703;BME280;861;48.808;9.006;2022-09-01T02:34:25;97311.66;;;16.66;85.93
41703;BME280;861;48.808;9.006;2022-09-01T02:36:56;97311.56;;;16.73;84.98
41703;BME280;861;48.808;9.006;2022-09-01T02:39:31;97307.06;;;16.59;85.11
41703;BME280;861;48.808;9.006;2022-09-01T02:42:00;97311.47;;;16.53;85.12
41703;BME280;861;48.808;9.006;2022-09-01T02:44:29;97316.59;;;16.51;85.00
41703;BME280;861;48.808;9.006;2022-09-01T02:46:56;97317.72;;;16.57;84.70
41703;BME280;861;48.808;9.006;2022-09-01T02:49:24;97312.22;;;16.57;84.42
41703;BME280;861;48.808;9.006;2022-09-01T02:51:56;97309.81;;;16.59;83.97
41703;BME280;861;48.808;9.006;2022-09-01T02:54:29;97308.63;;;16.60;83.29
41703;BME280;861;48.808;9.006;2022-09-01T02:56:57;97308.63;;;16.60;82.93
41703;BME280;861;48.808;9.006;2022-09-01T03:00:10;97314.69;;;16.48;83.89
41703;BME280;861;48.808;9.006;2022-09-01T03:02:50;97316.31;;;16.46;83.52
41703;BME280;861;48.808;9.006;2022-09-01T03:05:25;97310.75;;;16.23;84.50
41703;BME280;861;48.808;9.006;2022-09-01T03:08:10;97309.50;;;16.27;84.67
41703;BME280;861;48.808;9.006;2022-09-01T03:10:44;97306.31;;;16.32;84.13
41703;BME280;861;48.808;9.006;2022-09-01T03:13:22;97297.38;;;16.25;83.95
41703;BME280;861;48.808;9.006;2022-09-01T03:15:49;97301.47;;;16.13;84.03
41703;BME280;861;48.808;9.006;2022-09-01T03:18:16;97297.91;;;16.16;83.91
41703;BME280;861;48.808;9.006;2022-09-01T03:20:46;97297.38;;;16.25;84.33
41703;BME280;861;48.808;9.006;2022-09-01T03:23:16;97301.28;;;16.27;84.00
41703;BME280;861;48.808;9.006;2022-09-01T03:25:46;97297.84;;;16.20;85.15
41703;BME280;861;48.808;9.006;2022-09-01T03:28:15;97297.72;;;16.27;84.68
41703;BME280;861;48.808;9.006;2022-09-01T03:30:53;97294.06;;;16.10;85.27
41703;BME280;861;48.808;9.006;2022-09-01T03:33:26;97308.53;;;16.14;85.39
41703;BME280;861;48.808;9.006;2022-09-01T03:35:55;97292.50;;;16.09;85.35
41703;BME280;861;48.808;9.006;2022-09-01T03:38:24;97304.28;;;16.10;85.69
41703;BME280;861;48.808;9.006;2022-09-01T03:41:03;97305.19;;;16.26;84.50
41703;BME280;861;48.808;9.006;2022-09-01T03:43:33;97300.06;;;16.28;84.26
41703;BME280;861;48.808;9.006;2022-09-01T03:45:59;97300.38;;;16.07;85.60
41703;BME280;861;48.808;9.006;2022-09-01T03:48:29;97299.88;;;16.16;84.23
41703;BME280;861;48.808;9.006;2022-09-01T03:50:59;97302.56;;;16.19;84.64
41703;BME280;861;48.808;9.006;2022-09-01T03:53:36;97305.31;;;16.19;83.73
41703;BME280;861;48.808;9.006;2022-09-01T03:56:04;97297.91;;;16.16;84.94
41703;BME280;861;48.808;9.006;2022-09-01T03:58:32;97306.50;;;16.18;85.45
41703;BME280;861;48.808;9.006;2022-09-01T04:01:00;97301.47;;;16.13;85.78
41703;BME280;861;48.808;9.006;2022-09-01T04:03:32;97306.19;;;16.13;85.87
41703;BME280;861;48.808;9.006;2022-09-01T04:06:02;97306.50;;;16.18;84.83
41703;BME280;861;48.808;9.006;2022-09-01T04:08:28;97307.53;;;16.28;83.32
41703;BME280;861;48.808;9.006;2022-09-01T04:11:11;97307.91;;;16.30;83.50
41703;BME280;861;48.808;9.006;2022-09-01T04:13:41;97309.38;;;16.34;84.28
41703;BME280;861;48.808;9.006;2022-09-01T04:16:26;97307.09;;;16.29;85.48
41703;BME280;861;48.808;9.006;2022-09-01T04:19:18;97305.56;;;16.28;85.31
41703;BME280;861;48.808;9.006;2022-09-01T04:21:58;97303.56;;;16.32;84.00
41703;BME280;861;48.808;9.006;2022-09-01T04:24:30;97307.44;;;16.35;83.03
41703;BME280;861;48.808;9.006;2022-09-01T04:27:02;97305.97;;;16.27;84.12
41703;BME280;861;48.808;9.006;2022-09-01T04:29:30;97314.13;;;16.34;83.88
41703;BME280;861;48.808;9.006;2022-09-01T04:32:07;97306.09;;;16.20;85.45
41703;BME280;861;48.808;9.006;2022-09-01T04:34:38;97313.09;;;16.24;84.99
41703;BME280;861;48.808;9.006;2022-09-01T04:37:20;97314.97;;;16.31;86.12
41703;BME280;861;48.808;9.006;2022-09-01T04:39:54;97313.56;;;16.46;84.80
41703;BME280;861;48.808;9.006;2022-09-01T04:42:24;97311.09;;;16.51;84.04
41703;BME280;861;48.808;9.006;2022-09-01T04:44:55;97307.13;;;16.56;83.82
41703;BME280;861;48.808;9.006;2022-09-01T04:47:22;97311.00;;;16.58;83.63
41703;BME280;861;48.808;9.006;2022-09-01T04:49:59;97316.22;;;16.53;83.97
41703;BME280;861;48.808;9.006;2022-09-01T04:52:27;97319.72;;;16.53;83.66
41703;BME280;861;48.808;9.006;2022-09-01T04:54:54;97323.72;;;16.49;83.33
41703;BME280;861;48.808;9.006;2022-09-01T04:57:21;97313.81;;;16.55;82.89
41703;BME280;861;48.808;9.006;2022-09-01T04:59:48;97317.84;;;16.47;82.81
41703;BME280;861;48.808;9.006;2022-09-01T05:02:15;97320.28;;;16.41;83.11
41703;BME280;861;48.808;9.006;2022-09-01T05:04:41;97323.81;;;16.42;82.50
41703;BME280;861;48.808;9.006;2022-09-01T05:07:11;97317.97;;;16.40;81.91
41703;BME280;861;48.808;9.006;2022-09-01T05:09:39;97317.09;;;16.46;81.95
41703;BME280;861;48.808;9.006;2022-09-01T05:12:06;97318.06;;;16.33;82.83
41703;BME280;861;48.808;9.006;2022-09-01T05:14:43;97325.22;;;16.27;83.12
41703;BME280;861;48.808;9.006;2022-09-01T05:17:13;97320.13;;;16.25;83.30
41703;BME280;861;48.808;9.006;2022-09-01T05:19:46;97323.22;;;16.31;83.46
41703;BME280;861;48.808;9.006;2022-09-01T05:22:16;97320.97;;;16.22;83.54
41703;BME280;861;48.808;9.006;2022-09-01T05:24:46;97323.72;;;16.22;83.07
41703;BME280;861;48.808;9.006;2022-09-01T05:27:16;97319.84;;;16.20;83.27
41703;BME280;861;48.808;9.006;2022-09-01T05:29:44;97320.59;;;16.20;83.72
41703;BME280;861;48.808;9.006;2022-09-01T05:32:11;97320.91;;;16.26;83.99
41703;BME280;861;48.808;9.006;2022-09-01T05:34:41;97326.03;;;16.24;84.48
41703;BME280;861;48.808;9.006;2022-09-01T05:37:09;97327.25;;;16.23;84.67
41703;BME280;861;48.808;9.006;2022-09-01T05:39:38;97325.41;;;16.39;83.28
41703;BME280;861;48.808;9.006;2022-09-01T05:42:06;97325.38;;;16.43;83.43
41703;BME280;861;48.808;9.006;2022-09-01T05:44:37;97318.28;;;16.45;82.40
41703;BME280;861;48.808;9.006;2022-09-01T05:47:10;97318.22;;;16.49;82.86
41703;BME280;861;48.808;9.006;2022-09-01T05:49:37;97324.50;;;16.49;83.28
41703;BME280;861;48.808;9.006;2022-09-01T05:52:05;97321.47;;;16.40;82.89
41703;BME280;861;48.808;9.006;2022-09-01T05:54:34;97313.56;;;16.46;83.17
41703;BME280;861;48.808;9.006;2022-09-01T05:57:00;97315.22;;;16.40;83.28
41703;BME280;861;48.808;9.006;2022-09-01T05:59:28;97312.50;;;16.36;83.58
41703;BME280;861;48.808;9.006;2022-09-01T06:01:57;97315.22;;;16.40;83.87
41703;BME280;861;48.808;9.006;2022-09-01T06:04:25;97310.88;;;16.39;84.40
41703;BME280;861;48.808;9.006;2022-09-01T06:06:59;97319.50;;;16.41;84.82
41703;BME280;861;48.808;9.006;2022-09-01T06:09:25;97313.06;;;16.54;84.51
41703;BME280;861;48.808;9.006;2022-09-01T06:11:52;97312.81;;;16.68;83.20
41703;BME280;861;48.808;9.006;2022-09-01T06:14:20;97311.19;;;16.71;83.32
41703;BME280;861;48.808;9.006;2022-09-01T06:16:46;97309.03;;;16.59;83.69
41703;BME280;861;48.808;9.006;2022-09-01T06:19:12;97310.91;;;16.65;84.07
41703;BME280;861;48.808;9.006;2022-09-01T06:21:40;97317.47;;;16.71;85.46
41703;BME280;861;48.808;9.006;2022-09-01T06:24:07;97315.56;;;16.68;86.55
41703;BME280;861;48.808;9.006;2022-09-01T06:26:37;97313.16;;;16.70;87.03
41703;BME280;861;48.808;9.006;2022-09-01T06:29:09;97318.47;;;16.58;88.62
41703;BME280;861;48.808;9.006;2022-09-01T06:31:41;97318.88;;;16.56;90.08
41703;BME280;861;48.808;9.006;2022-09-01T06:34:11;97317.38;;;16.52;90.11
41703;BME280;861;48.808;9.006;2022-09-01T06:36:46;97318.59;;;16.74;89.18
41703;BME280;861;48.808;9.006;2022-09-01T06:39:16;97315.75;;;16.81;89.22
41703;BME280;861;48.808;9.006;2022-09-01T06:41:49;97313.28;;;16.87;89.28
41703;BME280;861;48.808;9.006;2022-09-01T06:44:20;97319.03;;;17.15;87.26
41703;BME280;861;48.808;9.006;2022-09-01T06:46:52;97320.75;;;17.29;86.74
41703;BME280;861;48.808;9.006;2022-09-01T06:49:21;97318.56;;;17.40;86.13
41703;BME280;861;48.808;9.006;2022-09-01T06:52:02;97308.66;;;17.46;86.90
41703;BME280;861;48.808;9.006;2022-09-01T06:54:31;97325.81;;;17.53;86.32
41703;BME280;861;48.808;9.006;2022-09-01T06:57:02;97322.22;;;17.56;86.53
41703;BME280;861;48.808;9.006;2022-09-01T06:59:30;97326.13;;;17.36;87.25
41703;BME280;861;48.808;9.006;2022-09-01T07:02:01;97336.34;;;17.35;86.91
41703;BME280;861;48.808;9.006;2022-09-01T07:04:29;97333.59;;;17.16;87.76
41703;BME280;861;48.808;9.006;2022-09-01T07:06:57;97333.81;;;17.25;88.10
41703;BME280;861;48.808;9.006;2022-09-01T07:09:23;97331.75;;;17.29;88.38
41703;BME280;861;48.808;9.006;2022-09-01T07:11:49;97343.19;;;17.27;88.77
41703;BME280;861;48.808;9.006;2022-09-01T07:14:18;97341.31;;;17.44;88.47
41703;BME280;861;48.808;9.006;2022-09-01T07:16:45;97346.47;;;17.42;88.03
41703;BME280;861;48.808;9.006;2022-09-01T07:19:12;97347.56;;;17.67;86.71
41703;BME280;861;48.808;9.006;2022-09-01T07:21:43;97342.53;;;17.62;87.32
41703;BME280;861;48.808;9.006;2022-09-01T07:24:12;97337.47;;;17.61;87.78
41703;BME280;861;48.808;9.006;2022-09-01T07:26:41;97345.03;;;17.57;87.86
41703;BME280;861;48.808;9.006;2022-09-01T07:29:07;97340.50;;;17.66;87.05
41703;BME280;861;48.808;9.006;2022-09-01T07:31:42;97346.50;;;17.81;86.06
41703;BME280;861;48.808;9.006;2022-09-01T07:34:12;97350.66;;;17.89;85.33
41703;BME280;861;48.808;9.006;2022-09-01T07:36:43;97349.53;;;17.86;86.63
41703;BME280;861;48.808;9.006;2022-09-01T07:39:12;97357.06;;;18.02;84.87
41703;BME280;861;48.808;9.006;2022-09-01T07:41:40;97357.19;;;18.14;85.04
41703;BME280;861;48.808;9.006;2022-09-01T07:44:09;97356.16;;;18.08;85.18
41703;BME280;861;48.808;9.006;2022-09-01T07:46:38;97356.91;;;18.09;86.39
41703;BME280;861;48.808;9.006;2022-09-01T07:49:07;97356.66;;;18.03;85.44
41703;BME280;861;48.808;9.006;2022-09-01T07:51:34;97365.09;;;18.12;85.74
41703;BME280;861;48.808;9.006;2022-09-01T07:54:01;97365.59;;;18.07;85.15
41703;BME280;861;48.808;9.006;2022-09-01T07:56:28;97367.38;;;18.17;86.05
41703;BME280;861;48.808;9.006;2022-09-01T07:58:56;97371.53;;;18.25;85.21
41703;BME280;861;48.808;9.006;2022-09-01T08:01:27;97369.19;;;18.44;84.31
41703;BME280;861;48.808;9.006;2022-09-01T08:03:59;97369.25;;;18.40;84.16
41703;BME280;861;48.808;9.006;2022-09-01T08:06:28;97374.03;;;18.72;82.45
41703;BME280;861;48.808;9.006;2022-09-01T08:08:58;97366.97;;;18.87;82.04
41703;BME280;861;48.808;9.006;2022-09-01T08:11:30;97374.97;;;18.97;81.99
41703;BME280;861;48.808;9.006;2022-09-01T08:13:59;97370.16;;;19.17;80.83
41703;BME280;861;48.808;9.006;2022-09-01T08:16:30;97373.06;;;19.26;80.54
41703;BME280;861;48.808;9.006;2022-09-01T08:18:58;97378.25;;;19.08;80.86
41703;BME280;861;48.808;9.006;2022-09-01T08:21:26;97381.34;;;18.94;81.90
41703;BME280;861;48.808;9.006;2022-09-01T08:23:54;97380.69;;;18.90;82.26
41703;BME280;861;48.808;9.006;2022-09-01T08:26:25;97372.91;;;19.33;78.82
41703;BME280;861;48.808;9.006;2022-09-01T08:28:54;97375.69;;;19.33;79.64
41703;BME280;861;48.808;9.006;2022-09-01T08:31:23;97375.69;;;19.33;81.11
41703;BME280;861;48.808;9.006;2022-09-01T08:33:52;97377.44;;;19.40;80.68
41703;BME280;861;48.808;9.006;2022-09-01T08:36:18;97367.00;;;19.47;79.57
41703;BME280;861;48.808;9.006;2022-09-01T08:38:45;97379.53;;;19.36;80.69
41703;BME280;861;48.808;9.006;2022-09-01T08:41:46;97376.53;;;19.14;80.24
41703;BME280;861;48.808;9.006;2022-09-01T08:44:59;97379.91;;;19.06;80.26
41703;BME280;861;48.808;9.006;2022-09-01T08:47:32;97378.59;;;19.10;81.47
41703;BME280;861;48.808;9.006;2022-09-01T08:49:59;97387.91;;;19.16;80.19
41703;BME280;861;48.808;9.006;2022-09-01T08:53:08;97386.72;;;19.17;81.22
41703;BME280;861;48.808;9.006;2022-09-01T08:55:55;97383.31;;;19.42;78.99
41703;BME280;861;48.808;9.006;2022-09-01T08:58:24;97377.41;;;19.56;78.67
41703;BME280;861;48.808;9.006;2022-09-01T09:01:08;97383.38;;;19.54;77.38
41703;BME280;861;48.808;9.006;2022-09-01T09:08:24;97386.88;;;19.42;77.50
41703;BME280;861;48.808;9.006;2022-09-01T09:10:59;97388.59;;;19.65;77.67
41703;BME280;861;48.808;9.006;2022-09-01T09:16:56;97389.81;;;19.93;76.69
41703;BME280;861;48.808;9.006;2022-09-01T09:19:34;97381.88;;;19.95;75.45
41703;BME280;861;48.808;9.006;2022-09-01T09:22:10;97392.97;;;20.07;75.37
41703;BME280;861;48.808;9.006;2022-09-01T09:25:04;97390.97;;;20.08;74.66
41703;BME280;861;48.808;9.006;2022-09-01T09:27:40;97379.56;;;20.06;74.61
41703;BME280;861;48.808;9.006;2022-09-01T09:30:25;97388.75;;;20.03;74.09
41703;BME280;861;48.808;9.006;2022-09-01T09:32:58;97388.16;;;19.95;72.66
41703;BME280;861;48.808;9.006;2022-09-01T09:35:37;97382.94;;;19.85;74.91
41703;BME280;861;48.808;9.006;2022-09-01T09:41:15;97388.94;;;19.96;74.33
41703;BME280;861;48.808;9.006;2022-09-01T09:44:26;97387.06;;;19.93;75.31
41703;BME280;861;48.808;9.006;2022-09-01T09:46:55;97385.84;;;19.94;73.97
41703;BME280;861;48.808;9.006;2022-09-01T09:49:34;97385.31;;;19.99;73.43
41703;BME280;861;48.808;9.006;2022-09-01T09:52:13;97389.94;;;20.02;72.99
41703;BME280;861;48.808;9.006;2022-09-01T09:58:11;97379.72;;;20.15;72.75
41703;BME280;861;48.808;9.006;2022-09-01T10:00:37;97378.97;;;20.27;73.45
41703;BME280;861;48.808;9.006;2022-09-01T10:03:12;97370.38;;;20.50;72.00
41703;BME280;861;48.808;9.006;2022-09-01T10:05:49;97369.38;;;20.69;70.82
41703;BME280;861;48.808;9.006;2022-09-01T10:11:00;97376.53;;;20.79;71.24
41703;BME280;861;48.808;9.006;2022-09-01T10:13:28;97374.00;;;20.84;70.88
41703;BME280;861;48.808;9.006;2022-09-01T10:16:02;97378.84;;;20.93;71.75
41703;BME280;861;48.808;9.006;2022-09-01T10:18:43;97373.13;;;21.00;71.56
41703;BME280;861;48.808;9.006;2022-09-01T10:21:23;97374.66;;;21.13;71.26
41703;BME280;861;48.808;9.006;2022-09-01T10:24:06;97372.03;;;21.44;71.18
41703;BME280;861;48.808;9.006;2022-09-01T10:26:59;97372.53;;;21.86;68.91
41703;BME280;861;48.808;9.006;2022-09-01T10:30:05;97364.59;;;22.18;67.66
41703;BME280;861;48.808;9.006;2022-09-01T10:32:56;97365.00;;;22.69;67.60
41703;BME280;861;48.808;9.006;2022-09-01T10:35:42;97363.47;;;22.77;65.46
41703;BME280;861;48.808;9.006;2022-09-01T10:38:25;97367.00;;;22.38;65.39
41703;BME280;861;48.808;9.006;2022-09-01T10:40:58;97368.81;;;22.01;66.69
41703;BME280;861;48.808;9.006;2022-09-01T10:43:45;97367.75;;;22.08;66.31
41703;BME280;861;48.808;9.006;2022-09-01T10:48:54;97358.56;;;22.50;65.65
41703;BME280;861;48.808;9.006;2022-09-01T10:54:06;97357.25;;;22.03;66.08
41703;BME280;861;48.808;9.006;2022-09-01T10:56:49;97356.72;;;21.95;67.12
41703;BME280;861;48.808;9.006;2022-09-01T11:13:27;97341.50;;;22.00;69.00
41703;BME280;861;48.808;9.006;2022-09-01T11:16:36;97344.09;;;22.95;66.38
41703;BME280;861;48.808;9.006;2022-09-01T11:19:53;97343.41;;;23.67;60.73
41703;BME280;861;48.808;9.006;2022-09-01T11:23:11;97331.75;;;24.23;60.56
41703;BME280;861;48.808;9.006;2022-09-01T11:29:00;97321.75;;;24.90;55.90
41703;BME280;861;48.808;9.006;2022-09-01T11:31:46;97324.31;;;25.03;55.99
41703;BME280;861;48.808;9.006;2022-09-01T11:34:20;97321.13;;;24.54;57.74
41703;BME280;861;48.808;9.006;2022-09-01T11:36:59;97323.78;;;23.97;58.28
41703;BME280;861;48.808;9.006;2022-09-01T11:39:47;97325.66;;;23.64;57.20
41703;BME280;861;48.808;9.006;2022-09-01T11:42:40;97320.25;;;23.52;57.79
41703;BME280;861;48.808;9.006;2022-09-01T11:45:26;97328.28;;;23.32;58.43
41703;BME280;861;48.808;9.006;2022-09-01T11:48:10;97318.34;;;23.13;60.10
41703;BME280;861;48.808;9.006;2022-09-01T11:50:41;97321.47;;;23.15;59.63
41703;BME280;861;48.808;9.006;2022-09-01T11:53:14;97316.97;;;23.08;60.00
41703;BME280;861;48.808;9.006;2022-09-01T11:55:53;97319.88;;;23.05;61.94
41703;BME280;861;48.808;9.006;2022-09-01T11:58:34;97325.94;;;23.84;61.21
41703;BME280;861;48.808;9.006;2022-09-01T12:01:30;97321.13;;;24.12;59.12
41703;BME280;861;48.808;9.006;2022-09-01T12:04:31;97323.09;;;24.21;57.63
41703;BME280;861;48.808;9.006;2022-09-01T12:07:12;97320.06;;;23.91;60.26
41703;BME280;861;48.808;9.006;2022-09-01T12:09:52;97316.69;;;23.69;60.73
41703;BME280;861;48.808;9.006;2022-09-01T12:12:39;97316.22;;;23.71;60.46
41703;BME280;861;48.808;9.006;2022-09-01T12:15:24;97311.22;;;24.11;57.23
41703;BME280;861;48.808;9.006;2022-09-01T12:18:18;97303.50;;;24.89;57.03
41703;BME280;861;48.808;9.006;2022-09-01T12:20:57;97306.00;;;25.34;53.52
41703;BME280;861;48.808;9.006;2022-09-01T12:23:37;97302.22;;;25.76;54.67
41703;BME280;861;48.808;9.006;2022-09-01T12:26:12;97297.38;;;26.14;52.80
41703;BME280;861;48.808;9.006;2022-09-01T12:28:42;97302.53;;;26.50;54.32
41703;BME280;861;48.808;9.006;2022-09-01T12:31:25;97295.47;;;26.55;53.59
41703;BME280;861;48.808;9.006;2022-09-01T12:33:55;97297.72;;;26.85;53.30
41703;BME280;861;48.808;9.006;2022-09-01T12:36:34;97303.69;;;26.44;51.94
41703;BME280;861;48.808;9.006;2022-09-01T12:42:00;97298.25;;;25.29;54.07
41703;BME280;861;48.808;9.006;2022-09-01T12:44:58;97295.44;;;24.91;54.22
41703;BME280;861;48.808;9.006;2022-09-01T12:52:55;97289.44;;;24.51;56.27
41703;BME280;861;48.808;9.006;2022-09-01T12:55:30;97289.53;;;24.57;56.55
41703;BME280;861;48.808;9.006;2022-09-01T12:58:04;97292.28;;;24.33;55.99
41703;BME280;861;48.808;9.006;2022-09-01T13:01:01;97288.78;;;24.14;57.41
41703;BME280;861;48.808;9.006;2022-09-01T13:03:32;97291.94;;;23.98;56.82
41703;BME280;861;48.808;9.006;2022-09-01T13:06:02;97292.72;;;23.99;57.10
41703;BME280;861;48.808;9.006;2022-09-01T13:08:33;97288.97;;;24.11;57.11
41703;BME280;861;48.808;9.006;2022-09-01T13:11:14;97288.53;;;24.03;58.38
41703;BME280;861;48.808;9.006;2022-09-01T13:13:43;97284.69;;;24.01;56.73
41703;BME280;861;48.808;9.006;2022-09-01T13:16:10;97278.72;;;24.26;57.93
41703;BME280;861;48.808;9.006;2022-09-01T13:18:42;97282.63;;;24.85;55.04
41703;BME280;861;48.808;9.006;2022-09-01T13:21:12;97278.22;;;25.40;54.29
41703;BME280;861;48.808;9.006;2022-09-01T13:23:38;97272.63;;;26.07;52.35
41703;BME280;861;48.808;9.006;2022-09-01T13:26:05;97281.19;;;26.04;52.21
41703;BME280;861;48.808;9.006;2022-09-01T13:28:31;97276.03;;;26.46;51.78
41703;BME280;861;48.808;9.006;2022-09-01T13:31:04;97273.53;;;26.82;50.58
41703;BME280;861;48.808;9.006;2022-09-01T13:33:34;97274.09;;;26.52;50.96
41703;BME280;861;48.808;9.006;2022-09-01T13:36:04;97265.78;;;25.94;52.34
41703;BME280;861;48.808;9.006;2022-09-01T13:38:35;97272.91;;;26.09;52.85
41703;BME280;861;48.808;9.006;2022-09-01T13:41:01;97265.88;;;26.63;52.30
41703;BME280;861;48.808;9.006;2022-09-01T13:43:28;97269.38;;;27.33;50.26
41703;BME280;861;48.808;9.006;2022-09-01T13:45:56;97267.16;;;27.37;48.68
41703;BME280;861;48.808;9.006;2022-09-01T13:48:22;97258.34;;;27.03;50.09
41703;BME280;861;48.808;9.006;2022-09-01T13:50:51;97262.59;;;27.19;50.15
41703;BME280;861;48.808;9.006;2022-09-01T13:53:18;97263.28;;;26.94;47.09
41703;BME280;861;48.808;9.006;2022-09-01T13:55:45;97262.94;;;26.52;49.29
41703;BME280;861;48.808;9.006;2022-09-01T13:58:11;97261.03;;;26.98;48.32
41703;BME280;861;48.808;9.006;2022-09-01T14:00:45;97245.50;;;27.57;47.86
41703;BME280;861;48.808;9.006;2022-09-01T14:03:20;97254.13;;;28.05;48.13
41703;BME280;861;48.808;9.006;2022-09-01T14:05:49;97249.75;;;28.35;47.04
41703;BME280;861;48.808;9.006;2022-09-01T14:08:19;97241.38;;;28.72;46.55
41703;BME280;861;48.808;9.006;2022-09-01T14:10:50;97238.03;;;29.10;44.89
41703;BME280;861;48.808;9.006;2022-09-01T14:13:24;97242.16;;;29.20;44.92
41703;BME280;861;48.808;9.006;2022-09-01T14:15:52;97240.91;;;29.32;45.91
41703;BME280;861;48.808;9.006;2022-09-01T14:18:20;97236.63;;;28.83;46.63
41703;BME280;861;48.808;9.006;2022-09-01T14:20:50;97241.78;;;28.54;46.39
41703;BME280;861;48.808;9.006;2022-09-01T14:23:19;97242.53;;;28.49;46.55
41703;BME280;861;48.808;9.006;2022-09-01T14:25:49;97244.19;;;28.04;47.24
41703;BME280;861;48.808;9.006;2022-09-01T14:28:19;97240.34;;;27.50;46.47
41703;BME280;861;48.808;9.006;2022-09-01T14:30:49;97248.38;;;27.02;48.30
41703;BME280;861;48.808;9.006;2022-09-01T14:33:18;97243.50;;;26.77;48.49
41703;BME280;861;48.808;9.006;2022-09-01T14:35:49;97241.91;;;26.71;48.80
41703;BME280;861;48.808;9.006;2022-09-01T14:38:15;97239.72;;;26.46;49.54
41703;BME280;861;48.808;9.006;2022-09-01T14:40:47;97237.72;;;26.32;50.33
41703;BME280;861;48.808;9.006;2022-09-01T14:43:13;97231.47;;;26.22;50.59
41703;BME280;861;48.808;9.006;2022-09-01T14:45:42;97235.47;;;26.16;50.64
41703;BME280;861;48.808;9.006;2022-09-01T14:48:16;97228.53;;;25.97;50.25